sensor_id;sensor_type;location;lat;lon;timestamp;P1;durP1;ratioP1;P2;durP2;ratioP2
34242;SDS011;20504;43.214;27.920;2023-01-16T00:00:49;11.83;;;6.10;;
34242;SDS011;20504;43.214;27.920;2023-01-16T00:03:15;8.93;;;5.83;;
34242;SDS011;20504;43.214;27.920;2023-01-16T00:05:41;6.07;;;4.00;;
34242;SDS011;20504;43.214;27.920;2023-01-16T00:10:33;11.68;;;5.53;;
34242;SDS011;20504;43.214;27.920;2023-01-16T00:12:58;11.33;;;6.07;;
34242;SDS011;20504;43.214;27.920;2023-01-16T00:15:24;10.37;;;6.50;;
34242;SDS011;20504;43.214;27.920;2023-01-16T00:17:49;11.23;;;6.57;;
34242;SDS011;20504;43.214;27.920;2023-01-16T00:20:15;10.80;;;6.17;;
34242;SDS011;20504;43.214;27.920;2023-01-16T00:25:07;9.88;;;6.57;;
34242;SDS011;20504;43.214;27.920;2023-01-16T00:27:33;8.20;;;6.07;;
34242;SDS011;20504;43.214;27.920;2023-01-16T00:29:58;15.13;;;5.80;;
34242;SDS011;20504;43.214;27.920;2023-01-16T00:32:24;8.83;;;6.17;;
34242;SDS011;20504;43.214;27.920;2023-01-16T00:34:49;9.20;;;5.97;;
34242;SDS011;20504;43.214;27.920;2023-01-16T00:37:15;10.17;;;6.73;;
34242;SDS011;20504;43.214;27.920;2023-01-16T00:39:40;8.13;;;5.77;;
34242;SDS011;20504;43.214;27.920;2023-01-16T00:42:06;12.60;;;6.50;;
34242;SDS011;20504;43.214;27.920;2023-01-16T00:44:31;10.67;;;6.70;;
34242;SDS011;20504;43.214;27.920;2023-01-16T00:46:57;9.67;;;6.60;;
34242;SDS011;20504;43.214;27.920;2023-01-16T00:49:22;11.03;;;6.57;;
34242;SDS011;20504;43.214;27.920;2023-01-16T00:51:48;9.90;;;6.00;;
34242;SDS011;20504;43.214;27.920;2023-01-16T00:54:13;9.43;;;6.57;;
34242;SDS011;20504;43.214;27.920;2023-01-16T00:56:39;8.70;;;6.03;;
34242;SDS011;20504;43.214;27.920;2023-01-16T00:59:04;9.53;;;5.60;;
34242;SDS011;20504;43.214;27.920;2023-01-16T01:01:30;7.63;;;5.13;;
34242;SDS011;20504;43.214;27.920;2023-01-16T01:03:57;10.97;;;6.50;;
34242;SDS011;20504;43.214;27.920;2023-01-16T01:06:23;10.40;;;6.55;;
34242;SDS011;20504;43.214;27.920;2023-01-16T01:08:49;8.23;;;5.87;;
34242;SDS011;20504;43.214;27.920;2023-01-16T01:11:15;8.27;;;4.63;;
34242;SDS011;20504;43.214;27.920;2023-01-16T01:13:40;12.67;;;6.40;;
34242;SDS011;20504;43.214;27.920;2023-01-16T01:16:07;8.45;;;6.25;;
34242;SDS011;20504;43.214;27.920;2023-01-16T01:18:33;13.13;;;7.20;;
34242;SDS011;20504;43.214;27.920;2023-01-16T01:20:59;11.90;;;6.60;;
34242;SDS011;20504;43.214;27.920;2023-01-16T01:23:24;11.20;;;6.17;;
34242;SDS011;20504;43.214;27.920;2023-01-16T01:25:50;9.60;;;6.23;;
34242;SDS011;20504;43.214;27.920;2023-01-16T01:28:17;10.65;;;5.97;;
34242;SDS011;20504;43.214;27.920;2023-01-16T01:30:43;11.60;;;7.03;;
34242;SDS011;20504;43.214;27.920;2023-01-16T01:33:08;11.03;;;6.77;;
34242;SDS011;20504;43.214;27.920;2023-01-16T01:35:35;12.23;;;6.22;;
34242;SDS011;20504;43.214;27.920;2023-01-16T01:38:00;10.37;;;6.20;;
34242;SDS011;20504;43.214;27.920;2023-01-16T01:40:26;8.70;;;6.70;;
34242;SDS011;20504;43.214;27.920;2023-01-16T01:42:52;10.50;;;6.33;;
34242;SDS011;20504;43.214;27.920;2023-01-16T01:50:47;12.13;;;7.03;;
34242;SDS011;20504;43.214;27.920;2023-01-16T01:53:18;11.50;;;6.00;;
34242;SDS011;20504;43.214;27.920;2023-01-16T01:56:02;10.63;;;6.10;;
34242;SDS011;20504;43.214;27.920;2023-01-16T01:58:33;13.80;;;7.20;;
34242;SDS011;20504;43.214;27.920;2023-01-16T02:01:00;10.02;;;7.10;;
34242;SDS011;20504;43.214;27.920;2023-01-16T02:05:55;9.90;;;6.05;;
34242;SDS011;20504;43.214;27.920;2023-01-16T02:08:27;14.27;;;6.55;;
34242;SDS011;20504;43.214;27.920;2023-01-16T02:10:58;12.18;;;6.68;;
34242;SDS011;20504;43.214;27.920;2023-01-16T02:13:28;11.82;;;6.55;;
34242;SDS011;20504;43.214;27.920;2023-01-16T02:15:55;9.20;;;6.88;;
34242;SDS011;20504;43.214;27.920;2023-01-16T02:18:40;10.23;;;6.22;;
34242;SDS011;20504;43.214;27.920;2023-01-16T02:34:45;11.32;;;6.95;;
34242;SDS011;20504;43.214;27.920;2023-01-16T02:37:24;16.00;;;7.30;;
34242;SDS011;20504;43.214;27.920;2023-01-16T02:40:04;17.15;;;6.72;;
34242;SDS011;20504;43.214;27.920;2023-01-16T02:53:37;10.90;;;6.67;;
34242;SDS011;20504;43.214;27.920;2023-01-16T02:56:09;12.48;;;6.40;;
34242;SDS011;20504;43.214;27.920;2023-01-16T02:58:43;13.65;;;6.63;;
34242;SDS011;20504;43.214;27.920;2023-01-16T03:01:11;13.68;;;6.93;;
34242;SDS011;20504;43.214;27.920;2023-01-16T03:17:57;15.75;;;7.00;;
34242;SDS011;20504;43.214;27.920;2023-01-16T03:20:56;16.55;;;7.45;;
34242;SDS011;20504;43.214;27.920;2023-01-16T03:28:34;22.83;;;9.05;;
34242;SDS011;20504;43.214;27.920;2023-01-16T03:36:25;16.45;;;7.53;;
34242;SDS011;20504;43.214;27.920;2023-01-16T03:38:58;15.45;;;7.15;;
34242;SDS011;20504;43.214;27.920;2023-01-16T03:41:26;12.98;;;6.85;;
34242;SDS011;20504;43.214;27.920;2023-01-16T03:43:57;12.07;;;6.22;;
34242;SDS011;20504;43.214;27.920;2023-01-16T03:46:31;14.40;;;6.70;;
34242;SDS011;20504;43.214;27.920;2023-01-16T03:49:05;9.02;;;6.47;;
34242;SDS011;20504;43.214;27.920;2023-01-16T03:51:40;19.55;;;7.15;;
34242;SDS011;20504;43.214;27.920;2023-01-16T03:54:10;13.05;;;6.55;;
34242;SDS011;20504;43.214;27.920;2023-01-16T03:59:34;15.43;;;7.03;;
34242;SDS011;20504;43.214;27.920;2023-01-16T04:02:21;12.35;;;7.40;;
34242;SDS011;20504;43.214;27.920;2023-01-16T04:05:00;13.10;;;7.35;;
34242;SDS011;20504;43.214;27.920;2023-01-16T04:07:32;16.65;;;7.32;;
34242;SDS011;20504;43.214;27.920;2023-01-16T04:10:27;14.02;;;6.75;;
34242;SDS011;20504;43.214;27.920;2023-01-16T04:12:58;14.27;;;7.85;;
34242;SDS011;20504;43.214;27.920;2023-01-16T04:15:29;17.60;;;7.00;;
34242;SDS011;20504;43.214;27.920;2023-01-16T04:17:57;17.70;;;7.32;;
34242;SDS011;20504;43.214;27.920;2023-01-16T04:20:23;17.25;;;7.07;;
34242;SDS011;20504;43.214;27.920;2023-01-16T04:22:50;15.70;;;6.47;;
34242;SDS011;20504;43.214;27.920;2023-01-16T04:25:16;16.03;;;7.73;;
34242;SDS011;20504;43.214;27.920;2023-01-16T04:27:43;13.38;;;7.97;;
34242;SDS011;20504;43.214;27.920;2023-01-16T04:30:09;21.83;;;7.13;;
34242;SDS011;20504;43.214;27.920;2023-01-16T04:32:35;15.63;;;7.00;;
34242;SDS011;20504;43.214;27.920;2023-01-16T04:35:01;21.73;;;7.57;;
34242;SDS011;20504;43.214;27.920;2023-01-16T04:37:27;10.70;;;5.78;;
34242;SDS011;20504;43.214;27.920;2023-01-16T04:39:53;11.73;;;5.83;;
34242;SDS011;20504;43.214;27.920;2023-01-16T04:42:18;13.93;;;6.10;;
34242;SDS011;20504;43.214;27.920;2023-01-16T04:44:44;15.90;;;6.17;;
34242;SDS011;20504;43.214;27.920;2023-01-16T04:47:10;13.00;;;6.20;;
34242;SDS011;20504;43.214;27.920;2023-01-16T04:49:36;19.45;;;6.85;;
34242;SDS011;20504;43.214;27.920;2023-01-16T04:52:02;20.93;;;6.77;;
34242;SDS011;20504;43.214;27.920;2023-01-16T04:54:28;10.40;;;6.53;;
34242;SDS011;20504;43.214;27.920;2023-01-16T04:56:53;10.80;;;7.00;;
34242;SDS011;20504;43.214;27.920;2023-01-16T04:59:19;12.27;;;6.57;;
34242;SDS011;20504;43.214;27.920;2023-01-16T05:01:44;13.20;;;5.97;;
34242;SDS011;20504;43.214;27.920;2023-01-16T05:04:12;13.87;;;6.10;;
34242;SDS011;20504;43.214;27.920;2023-01-16T05:06:38;11.05;;;6.78;;
34242;SDS011;20504;43.214;27.920;2023-01-16T05:09:05;13.37;;;6.57;;
34242;SDS011;20504;43.214;27.920;2023-01-16T05:11:31;14.38;;;6.20;;
34242;SDS011;20504;43.214;27.920;2023-01-16T05:13:57;11.05;;;6.35;;
34242;SDS011;20504;43.214;27.920;2023-01-16T05:16:23;10.03;;;5.70;;
34242;SDS011;20504;43.214;27.920;2023-01-16T05:18:49;11.98;;;6.03;;
34242;SDS011;20504;43.214;27.920;2023-01-16T05:21:15;11.10;;;5.27;;
34242;SDS011;20504;43.214;27.920;2023-01-16T05:23:41;12.17;;;4.20;;
34242;SDS011;20504;43.214;27.920;2023-01-16T05:26:06;9.03;;;5.27;;
34242;SDS011;20504;43.214;27.920;2023-01-16T05:28:32;8.40;;;5.10;;
34242;SDS011;20504;43.214;27.920;2023-01-16T05:30:59;8.90;;;5.53;;
34242;SDS011;20504;43.214;27.920;2023-01-16T05:33:25;16.00;;;6.50;;
34242;SDS011;20504;43.214;27.920;2023-01-16T05:35:51;11.93;;;6.63;;
34242;SDS011;20504;43.214;27.920;2023-01-16T05:38:17;11.32;;;7.43;;
34242;SDS011;20504;43.214;27.920;2023-01-16T05:40:43;12.57;;;7.07;;
34242;SDS011;20504;43.214;27.920;2023-01-16T05:43:09;14.68;;;7.55;;
34242;SDS011;20504;43.214;27.920;2023-01-16T05:45:35;14.52;;;8.10;;
34242;SDS011;20504;43.214;27.920;2023-01-16T05:48:01;16.83;;;8.87;;
34242;SDS011;20504;43.214;27.920;2023-01-16T05:50:27;18.47;;;8.87;;
34242;SDS011;20504;43.214;27.920;2023-01-16T05:52:52;12.73;;;7.77;;
34242;SDS011;20504;43.214;27.920;2023-01-16T05:55:18;15.47;;;8.90;;
34242;SDS011;20504;43.214;27.920;2023-01-16T05:57:43;17.53;;;8.90;;
34242;SDS011;20504;43.214;27.920;2023-01-16T06:00:09;17.03;;;9.20;;
34242;SDS011;20504;43.214;27.920;2023-01-16T06:02:35;14.80;;;9.00;;
34242;SDS011;20504;43.214;27.920;2023-01-16T06:05:01;14.87;;;8.87;;
34242;SDS011;20504;43.214;27.920;2023-01-16T06:07:27;17.13;;;9.85;;
34242;SDS011;20504;43.214;27.920;2023-01-16T06:09:52;18.20;;;9.97;;
34242;SDS011;20504;43.214;27.920;2023-01-16T06:12:18;16.77;;;9.03;;
34242;SDS011;20504;43.214;27.920;2023-01-16T06:14:45;17.75;;;9.60;;
34242;SDS011;20504;43.214;27.920;2023-01-16T06:17:11;17.60;;;10.10;;
34242;SDS011;20504;43.214;27.920;2023-01-16T09:03:33;18.05;;;12.00;;
34242;SDS011;20504;43.214;27.920;2023-01-16T09:05:59;18.37;;;9.90;;
34242;SDS011;20504;43.214;27.920;2023-01-16T09:08:25;16.20;;;8.82;;
34242;SDS011;20504;43.214;27.920;2023-01-16T09:10:51;16.87;;;10.30;;
34242;SDS011;20504;43.214;27.920;2023-01-16T09:13:35;20.20;;;10.88;;
34242;SDS011;20504;43.214;27.920;2023-01-16T09:16:17;14.10;;;8.30;;
34242;SDS011;20504;43.214;27.920;2023-01-16T09:18:44;15.60;;;9.73;;
34242;SDS011;20504;43.214;27.920;2023-01-16T09:21:10;10.93;;;8.70;;
34242;SDS011;20504;43.214;27.920;2023-01-16T09:23:36;13.30;;;8.07;;
34242;SDS011;20504;43.214;27.920;2023-01-16T09:26:01;11.43;;;8.50;;
34242;SDS011;20504;43.214;27.920;2023-01-16T09:28:26;17.90;;;9.60;;
34242;SDS011;20504;43.214;27.920;2023-01-16T09:30:52;17.77;;;11.23;;
34242;SDS011;20504;43.214;27.920;2023-01-16T09:33:17;12.43;;;9.30;;
34242;SDS011;20504;43.214;27.920;2023-01-16T09:35:43;15.77;;;10.30;;
34242;SDS011;20504;43.214;27.920;2023-01-16T09:38:08;22.37;;;11.13;;
34242;SDS011;20504;43.214;27.920;2023-01-16T09:40:34;17.03;;;11.37;;
34242;SDS011;20504;43.214;27.920;2023-01-16T09:46:14;13.90;;;10.43;;
34242;SDS011;20504;43.214;27.920;2023-01-16T09:48:48;17.67;;;10.77;;
34242;SDS011;20504;43.214;27.920;2023-01-16T09:51:16;13.25;;;10.32;;
34242;SDS011;20504;43.214;27.920;2023-01-16T09:56:49;16.10;;;11.05;;
34242;SDS011;20504;43.214;27.920;2023-01-16T10:02:24;16.65;;;10.60;;
34242;SDS011;20504;43.214;27.920;2023-01-16T10:04:52;16.27;;;10.82;;
34242;SDS011;20504;43.214;27.920;2023-01-16T10:15:52;21.08;;;10.32;;
34242;SDS011;20504;43.214;27.920;2023-01-16T10:21:01;17.77;;;10.90;;
34242;SDS011;20504;43.214;27.920;2023-01-16T10:23:39;19.02;;;11.20;;
34242;SDS011;20504;43.214;27.920;2023-01-16T10:26:07;14.48;;;9.85;;
34242;SDS011;20504;43.214;27.920;2023-01-16T10:28:49;19.30;;;11.73;;
34242;SDS011;20504;43.214;27.920;2023-01-16T10:34:28;17.23;;;10.77;;
34242;SDS011;20504;43.214;27.920;2023-01-16T10:36:58;15.75;;;10.60;;
34242;SDS011;20504;43.214;27.920;2023-01-16T10:39:28;21.60;;;10.52;;
34242;SDS011;20504;43.214;27.920;2023-01-16T10:41:59;16.20;;;10.38;;
34242;SDS011;20504;43.214;27.920;2023-01-16T10:47:51;16.63;;;10.68;;
34242;SDS011;20504;43.214;27.920;2023-01-16T10:50:35;17.90;;;11.10;;
34242;SDS011;20504;43.214;27.920;2023-01-16T10:53:02;20.35;;;11.27;;
34242;SDS011;20504;43.214;27.920;2023-01-16T10:55:29;18.88;;;11.32;;
34242;SDS011;20504;43.214;27.920;2023-01-16T10:57:58;16.55;;;10.93;;
34242;SDS011;20504;43.214;27.920;2023-01-16T11:00:38;16.65;;;12.18;;
34242;SDS011;20504;43.214;27.920;2023-01-16T11:08:34;18.95;;;11.20;;
34242;SDS011;20504;43.214;27.920;2023-01-16T11:11:00;20.95;;;11.75;;
34242;SDS011;20504;43.214;27.920;2023-01-16T11:13:26;22.43;;;11.90;;
34242;SDS011;20504;43.214;27.920;2023-01-16T11:18:59;23.42;;;12.32;;
34242;SDS011;20504;43.214;27.920;2023-01-16T11:21:39;18.98;;;10.82;;
34242;SDS011;20504;43.214;27.920;2023-01-16T11:24:19;20.17;;;12.77;;
34242;SDS011;20504;43.214;27.920;2023-01-16T11:26:47;17.73;;;11.45;;
34242;SDS011;20504;43.214;27.920;2023-01-16T11:29:16;16.92;;;10.70;;
34242;SDS011;20504;43.214;27.920;2023-01-16T11:31:47;18.88;;;11.93;;
34242;SDS011;20504;43.214;27.920;2023-01-16T11:34:33;23.48;;;11.52;;
34242;SDS011;20504;43.214;27.920;2023-01-16T11:37:03;22.85;;;12.90;;
34242;SDS011;20504;43.214;27.920;2023-01-16T11:39:33;24.02;;;12.85;;
34242;SDS011;20504;43.214;27.920;2023-01-16T11:42:04;18.13;;;10.95;;
34242;SDS011;20504;43.214;27.920;2023-01-16T11:44:54;15.95;;;10.55;;
34242;SDS011;20504;43.214;27.920;2023-01-16T11:47:40;21.95;;;12.45;;
34242;SDS011;20504;43.214;27.920;2023-01-16T11:50:20;20.42;;;11.70;;
34242;SDS011;20504;43.214;27.920;2023-01-16T11:52:50;18.80;;;12.45;;
34242;SDS011;20504;43.214;27.920;2023-01-16T11:55:15;22.60;;;11.90;;
34242;SDS011;20504;43.214;27.920;2023-01-16T12:00:47;26.73;;;14.20;;
34242;SDS011;20504;43.214;27.920;2023-01-16T12:09:36;22.98;;;14.60;;
34242;SDS011;20504;43.214;27.920;2023-01-16T12:12:23;27.25;;;14.98;;
34242;SDS011;20504;43.214;27.920;2023-01-16T12:15:14;22.48;;;13.63;;
34242;SDS011;20504;43.214;27.920;2023-01-16T12:20:53;22.10;;;14.50;;
34242;SDS011;20504;43.214;27.920;2023-01-16T12:26:22;23.85;;;14.77;;
34242;SDS011;20504;43.214;27.920;2023-01-16T12:34:56;25.27;;;15.93;;
34242;SDS011;20504;43.214;27.920;2023-01-16T12:44:18;37.17;;;18.05;;
34242;SDS011;20504;43.214;27.920;2023-01-16T12:46:58;33.53;;;17.40;;
34242;SDS011;20504;43.214;27.920;2023-01-16T12:52:58;33.15;;;17.92;;
34242;SDS011;20504;43.214;27.920;2023-01-16T12:55:37;37.00;;;20.00;;
34242;SDS011;20504;43.214;27.920;2023-01-16T12:58:32;37.90;;;17.58;;
34242;SDS011;20504;43.214;27.920;2023-01-16T13:06:55;36.95;;;20.30;;
34242;SDS011;20504;43.214;27.920;2023-01-16T13:12:20;31.15;;;18.33;;
34242;SDS011;20504;43.214;27.920;2023-01-16T13:15:19;28.33;;;17.45;;
34242;SDS011;20504;43.214;27.920;2023-01-16T13:17:50;36.80;;;18.65;;
34242;SDS011;20504;43.214;27.920;2023-01-16T13:20:22;41.78;;;22.75;;
34242;SDS011;20504;43.214;27.920;2023-01-16T13:22:52;46.40;;;22.98;;
34242;SDS011;20504;43.214;27.920;2023-01-16T13:25:37;36.25;;;18.50;;
34242;SDS011;20504;43.214;27.920;2023-01-16T13:28:07;32.63;;;19.85;;
34242;SDS011;20504;43.214;27.920;2023-01-16T13:30:57;44.75;;;21.30;;
34242;SDS011;20504;43.214;27.920;2023-01-16T13:33:28;37.65;;;20.50;;
34242;SDS011;20504;43.214;27.920;2023-01-16T13:36:04;40.60;;;20.13;;
34242;SDS011;20504;43.214;27.920;2023-01-16T13:41:48;37.65;;;17.38;;
34242;SDS011;20504;43.214;27.920;2023-01-16T13:44:20;35.55;;;18.48;;
34242;SDS011;20504;43.214;27.920;2023-01-16T13:47:11;34.28;;;18.60;;
34242;SDS011;20504;43.214;27.920;2023-01-16T13:49:41;31.25;;;18.92;;
34242;SDS011;20504;43.214;27.920;2023-01-16T13:52:17;33.80;;;18.70;;
34242;SDS011;20504;43.214;27.920;2023-01-16T13:54:45;34.22;;;19.45;;
34242;SDS011;20504;43.214;27.920;2023-01-16T13:57:19;34.92;;;20.00;;
34242;SDS011;20504;43.214;27.920;2023-01-16T13:59:56;34.85;;;17.10;;
34242;SDS011;20504;43.214;27.920;2023-01-16T14:13:41;36.40;;;21.25;;
34242;SDS011;20504;43.214;27.920;2023-01-16T14:21:40;38.50;;;21.27;;
34242;SDS011;20504;43.214;27.920;2023-01-16T14:24:16;42.08;;;23.50;;
34242;SDS011;20504;43.214;27.920;2023-01-16T14:26:59;38.80;;;21.92;;
34242;SDS011;20504;43.214;27.920;2023-01-16T14:29:44;51.90;;;23.35;;
34242;SDS011;20504;43.214;27.920;2023-01-16T14:32:18;42.97;;;25.00;;
34242;SDS011;20504;43.214;27.920;2023-01-16T14:37:12;47.13;;;24.77;;
34242;SDS011;20504;43.214;27.920;2023-01-16T14:42:16;45.22;;;24.95;;
34242;SDS011;20504;43.214;27.920;2023-01-16T14:50:54;55.38;;;29.10;;
34242;SDS011;20504;43.214;27.920;2023-01-16T14:53:59;46.42;;;27.58;;
34242;SDS011;20504;43.214;27.920;2023-01-16T14:56:48;44.70;;;26.60;;
34242;SDS011;20504;43.214;27.920;2023-01-16T15:01:54;43.63;;;27.65;;
34242;SDS011;20504;43.214;27.920;2023-01-16T15:05:03;54.67;;;29.40;;
34242;SDS011;20504;43.214;27.920;2023-01-16T15:07:38;47.72;;;28.60;;
34242;SDS011;20504;43.214;27.920;2023-01-16T15:10:10;57.55;;;29.27;;
34242;SDS011;20504;43.214;27.920;2023-01-16T15:12:40;50.70;;;29.35;;
34242;SDS011;20504;43.214;27.920;2023-01-16T15:15:26;49.35;;;27.40;;
34242;SDS011;20504;43.214;27.920;2023-01-16T15:17:57;48.13;;;28.70;;
34242;SDS011;20504;43.214;27.920;2023-01-16T15:20:45;49.20;;;30.00;;
34242;SDS011;20504;43.214;27.920;2023-01-16T15:23:31;52.65;;;29.27;;
34242;SDS011;20504;43.214;27.920;2023-01-16T15:31:32;57.50;;;31.85;;
34242;SDS011;20504;43.214;27.920;2023-01-16T15:36:35;61.30;;;32.00;;
34242;SDS011;20504;43.214;27.920;2023-01-16T15:41:43;66.35;;;34.13;;
34242;SDS011;20504;43.214;27.920;2023-01-16T15:44:30;63.28;;;33.78;;
34242;SDS011;20504;43.214;27.920;2023-01-16T15:52:43;63.00;;;35.50;;
34242;SDS011;20504;43.214;27.920;2023-01-16T15:55:16;74.27;;;35.63;;
34242;SDS011;20504;43.214;27.920;2023-01-16T15:57:44;61.67;;;33.65;;
34242;SDS011;20504;43.214;27.920;2023-01-16T16:00:28;56.63;;;33.83;;
34242;SDS011;20504;43.214;27.920;2023-01-16T16:03:06;65.35;;;35.38;;
34242;SDS011;20504;43.214;27.920;2023-01-16T16:05:39;63.28;;;35.58;;
34242;SDS011;20504;43.214;27.920;2023-01-16T16:08:06;67.82;;;35.55;;
34242;SDS011;20504;43.214;27.920;2023-01-16T16:10:36;60.15;;;32.83;;
34242;SDS011;20504;43.214;27.920;2023-01-16T16:13:22;59.88;;;30.65;;
34242;SDS011;20504;43.214;27.920;2023-01-16T16:15:55;60.83;;;33.67;;
34242;SDS011;20504;43.214;27.920;2023-01-16T16:18:57;56.03;;;34.78;;
34242;SDS011;20504;43.214;27.920;2023-01-16T16:21:25;62.65;;;35.88;;
34242;SDS011;20504;43.214;27.920;2023-01-16T16:23:56;57.13;;;31.13;;
34242;SDS011;20504;43.214;27.920;2023-01-16T16:26:37;59.17;;;32.30;;
34242;SDS011;20504;43.214;27.920;2023-01-16T16:29:05;55.35;;;30.90;;
34242;SDS011;20504;43.214;27.920;2023-01-16T16:31:31;56.57;;;33.93;;
34242;SDS011;20504;43.214;27.920;2023-01-16T16:36:48;62.58;;;32.67;;
34242;SDS011;20504;43.214;27.920;2023-01-16T16:41:53;65.35;;;35.17;;
34242;SDS011;20504;43.214;27.920;2023-01-16T16:44:39;55.67;;;33.95;;
34242;SDS011;20504;43.214;27.920;2023-01-16T16:47:26;57.53;;;34.80;;
34242;SDS011;20504;43.214;27.920;2023-01-16T16:49:53;60.88;;;36.85;;
34242;SDS011;20504;43.214;27.920;2023-01-16T16:52:37;65.60;;;36.40;;
34242;SDS011;20504;43.214;27.920;2023-01-16T16:55:27;65.35;;;36.83;;
34242;SDS011;20504;43.214;27.920;2023-01-16T16:58:02;61.97;;;36.47;;
34242;SDS011;20504;43.214;27.920;2023-01-16T17:00:30;61.20;;;36.10;;
34242;SDS011;20504;43.214;27.920;2023-01-16T17:03:17;71.57;;;38.42;;
34242;SDS011;20504;43.214;27.920;2023-01-16T17:05:45;64.90;;;36.15;;
34242;SDS011;20504;43.214;27.920;2023-01-16T17:08:24;64.45;;;35.28;;
34242;SDS011;20504;43.214;27.920;2023-01-16T17:10:53;68.63;;;37.55;;
34242;SDS011;20504;43.214;27.920;2023-01-16T17:13:19;62.77;;;37.70;;
34242;SDS011;20504;43.214;27.920;2023-01-16T17:18:12;65.30;;;36.40;;
34242;SDS011;20504;43.214;27.920;2023-01-16T17:20:38;61.67;;;36.35;;
34242;SDS011;20504;43.214;27.920;2023-01-16T17:23:10;63.53;;;36.80;;
34242;SDS011;20504;43.214;27.920;2023-01-16T17:25:38;73.90;;;41.00;;
34242;SDS011;20504;43.214;27.920;2023-01-16T17:28:04;74.63;;;39.17;;
34242;SDS011;20504;43.214;27.920;2023-01-16T17:30:29;80.77;;;42.97;;
34242;SDS011;20504;43.214;27.920;2023-01-16T17:35:47;78.00;;;44.85;;
34242;SDS011;20504;43.214;27.920;2023-01-16T17:38:24;76.43;;;44.20;;
34242;SDS011;20504;43.214;27.920;2023-01-16T17:40:50;79.10;;;43.65;;
34242;SDS011;20504;43.214;27.920;2023-01-16T17:43:16;71.38;;;42.78;;
34242;SDS011;20504;43.214;27.920;2023-01-16T17:46:05;72.40;;;42.92;;
34242;SDS011;20504;43.214;27.920;2023-01-16T17:48:33;83.13;;;44.72;;
34242;SDS011;20504;43.214;27.920;2023-01-16T17:50:59;77.33;;;43.93;;
34242;SDS011;20504;43.214;27.920;2023-01-16T17:53:25;74.90;;;39.70;;
34242;SDS011;20504;43.214;27.920;2023-01-16T17:55:53;70.07;;;39.55;;
34242;SDS011;20504;43.214;27.920;2023-01-16T17:58:27;75.47;;;41.85;;
34242;SDS011;20504;43.214;27.920;2023-01-16T18:01:08;71.30;;;42.17;;
34242;SDS011;20504;43.214;27.920;2023-01-16T19:45:19;61.28;;;34.25;;
34242;SDS011;20504;43.214;27.920;2023-01-16T19:48:10;60.85;;;32.00;;
34242;SDS011;20504;43.214;27.920;2023-01-16T19:50:35;57.30;;;32.67;;
34242;SDS011;20504;43.214;27.920;2023-01-16T19:53:02;65.63;;;34.60;;
34242;SDS011;20504;43.214;27.920;2023-01-16T19:55:31;59.40;;;32.03;;
34242;SDS011;20504;43.214;27.920;2023-01-16T19:57:56;63.27;;;32.90;;
34242;SDS011;20504;43.214;27.920;2023-01-16T20:00:22;60.05;;;33.92;;
34242;SDS011;20504;43.214;27.920;2023-01-16T20:02:48;60.50;;;33.73;;
34242;SDS011;20504;43.214;27.920;2023-01-16T20:05:14;68.23;;;34.33;;
34242;SDS011;20504;43.214;27.920;2023-01-16T20:07:39;66.63;;;36.27;;
34242;SDS011;20504;43.214;27.920;2023-01-16T20:10:05;69.93;;;36.73;;
34242;SDS011;20504;43.214;27.920;2023-01-16T20:12:30;70.53;;;35.77;;
34242;SDS011;20504;43.214;27.920;2023-01-16T20:14:58;81.50;;;37.47;;
34242;SDS011;20504;43.214;27.920;2023-01-16T20:17:26;75.95;;;37.42;;
34242;SDS011;20504;43.214;27.920;2023-01-16T20:19:54;71.18;;;37.38;;
34242;SDS011;20504;43.214;27.920;2023-01-16T20:22:20;75.75;;;37.00;;
34242;SDS011;20504;43.214;27.920;2023-01-16T20:24:45;70.50;;;38.50;;
34242;SDS011;20504;43.214;27.920;2023-01-16T20:27:13;72.28;;;37.70;;
34242;SDS011;20504;43.214;27.920;2023-01-16T20:29:39;50.00;;;25.77;;
34242;SDS011;20504;43.214;27.920;2023-01-16T20:32:05;70.83;;;36.27;;
34242;SDS011;20504;43.214;27.920;2023-01-16T20:34:31;76.68;;;37.78;;
34242;SDS011;20504;43.214;27.920;2023-01-16T20:36:56;73.27;;;37.23;;
34242;SDS011;20504;43.214;27.920;2023-01-16T20:39:22;69.80;;;37.10;;
34242;SDS011;20504;43.214;27.920;2023-01-16T20:41:47;72.00;;;37.90;;
34242;SDS011;20504;43.214;27.920;2023-01-16T20:44:32;69.72;;;36.65;;
34242;SDS011;20504;43.214;27.920;2023-01-16T20:47:16;66.30;;;34.38;;
34242;SDS011;20504;43.214;27.920;2023-01-16T20:49:43;65.75;;;35.47;;
34242;SDS011;20504;43.214;27.920;2023-01-16T20:52:09;71.45;;;35.15;;
34242;SDS011;20504;43.214;27.920;2023-01-16T20:54:38;71.90;;;36.17;;
34242;SDS011;20504;43.214;27.920;2023-01-16T20:57:04;61.10;;;32.60;;
34242;SDS011;20504;43.214;27.920;2023-01-16T20:59:30;61.75;;;32.97;;
34242;SDS011;20504;43.214;27.920;2023-01-16T21:01:56;63.65;;;34.55;;
34242;SDS011;20504;43.214;27.920;2023-01-16T21:04:26;63.85;;;34.80;;
34242;SDS011;20504;43.214;27.920;2023-01-16T21:06:53;69.00;;;34.67;;
34242;SDS011;20504;43.214;27.920;2023-01-16T21:09:19;66.25;;;34.22;;
34242;SDS011;20504;43.214;27.920;2023-01-16T21:11:45;68.87;;;34.33;;
34242;SDS011;20504;43.214;27.920;2023-01-16T21:14:37;69.65;;;35.10;;
34242;SDS011;20504;43.214;27.920;2023-01-16T21:17:03;62.80;;;34.03;;
34242;SDS011;20504;43.214;27.920;2023-01-16T21:19:48;58.80;;;34.13;;
34242;SDS011;20504;43.214;27.920;2023-01-16T21:22:33;69.82;;;35.03;;
34242;SDS011;20504;43.214;27.920;2023-01-16T21:25:01;73.72;;;35.55;;
34242;SDS011;20504;43.214;27.920;2023-01-16T21:27:28;67.90;;;37.47;;
34242;SDS011;20504;43.214;27.920;2023-01-16T21:29:56;71.03;;;36.67;;
34242;SDS011;20504;43.214;27.920;2023-01-16T21:32:25;75.90;;;39.05;;
34242;SDS011;20504;43.214;27.920;2023-01-16T21:34:51;77.28;;;36.17;;
34242;SDS011;20504;43.214;27.920;2023-01-16T21:37:17;76.33;;;37.50;;
34242;SDS011;20504;43.214;27.920;2023-01-16T21:39:44;75.30;;;38.10;;
34242;SDS011;20504;43.214;27.920;2023-01-16T21:42:10;73.68;;;38.35;;
34242;SDS011;20504;43.214;27.920;2023-01-16T21:44:54;74.38;;;37.75;;
34242;SDS011;20504;43.214;27.920;2023-01-16T21:47:37;75.85;;;37.22;;
34242;SDS011;20504;43.214;27.920;2023-01-16T21:50:03;70.33;;;36.27;;
34242;SDS011;20504;43.214;27.920;2023-01-16T21:52:29;67.00;;;34.67;;
34242;SDS011;20504;43.214;27.920;2023-01-16T21:54:54;65.87;;;34.87;;
34242;SDS011;20504;43.214;27.920;2023-01-16T21:57:20;68.20;;;34.30;;
34242;SDS011;20504;43.214;27.920;2023-01-16T21:59:45;66.43;;;34.33;;
34242;SDS011;20504;43.214;27.920;2023-01-16T22:02:14;70.03;;;33.70;;
34242;SDS011;20504;43.214;27.920;2023-01-16T22:04:39;62.28;;;33.45;;
34242;SDS011;20504;43.214;27.920;2023-01-16T22:07:05;69.73;;;34.93;;
34242;SDS011;20504;43.214;27.920;2023-01-16T22:09:31;58.13;;;31.93;;
34242;SDS011;20504;43.214;27.920;2023-01-16T22:11:56;62.60;;;32.87;;
34242;SDS011;20504;43.214;27.920;2023-01-16T22:14:40;55.08;;;32.28;;
34242;SDS011;20504;43.214;27.920;2023-01-16T22:17:24;62.78;;;31.20;;
34242;SDS011;20504;43.214;27.920;2023-01-16T22:20:12;59.25;;;30.17;;
34242;SDS011;20504;43.214;27.920;2023-01-16T22:23:00;60.83;;;31.08;;